createdAt,value
2023-05-09T00:02:25.547Z,17.27
2023-05-09T00:04:53.399Z,16.13
2023-05-09T00:07:21.192Z,18.07
2023-05-09T00:10:24.745Z,16.97
2023-05-09T00:12:52.614Z,17.10
2023-05-09T00:15:20.328Z,17.63
2023-05-09T00:17:51.422Z,18.23
2023-05-09T00:20:20.102Z,20.27
2023-05-09T00:22:47.788Z,18.67
2023-05-09T00:25:17.122Z,19.23
2023-05-09T00:27:45.016Z,17.97
2023-05-09T00:30:13.004Z,18.43
2023-05-09T00:32:41.533Z,18.23
2023-05-09T00:35:09.979Z,19.10
2023-05-09T00:37:37.808Z,17.93
2023-05-09T00:40:07.510Z,17.77
2023-05-09T00:42:36.720Z,18.43
2023-05-09T00:45:04.705Z,18.70
2023-05-09T00:47:32.375Z,19.23
2023-05-09T00:50:00.085Z,17.57
2023-05-09T00:52:27.896Z,19.77
2023-05-09T00:54:55.808Z,20.00
2023-05-09T00:57:23.433Z,20.03
2023-05-09T00:59:52.553Z,20.03
2023-05-09T01:02:20.283Z,19.10
2023-05-09T01:04:48.042Z,19.43
2023-05-09T01:07:20.136Z,19.50
2023-05-09T01:09:50.867Z,19.77
2023-05-09T01:12:24.396Z,21.97
2023-05-09T01:14:57.128Z,20.37
2023-05-09T01:17:28.260Z,18.27
2023-05-09T01:20:00.691Z,19.00
2023-05-09T01:22:33.244Z,20.60
2023-05-09T01:25:12.978Z,19.57
2023-05-09T01:27:45.480Z,18.27
2023-05-09T01:30:14.692Z,19.40
2023-05-09T01:32:43.234Z,17.60
2023-05-09T01:35:12.476Z,18.83
2023-05-09T01:37:43.099Z,20.37
2023-05-09T01:40:14.113Z,19.47
2023-05-09T01:42:43.605Z,19.10
2023-05-09T01:45:12.400Z,20.17
2023-05-09T01:47:41.734Z,21.97
2023-05-09T01:50:10.680Z,20.50
2023-05-09T01:52:38.669Z,19.33
2023-05-09T01:55:07.522Z,19.63
2023-05-09T01:57:35.531Z,21.07
2023-05-09T02:00:03.397Z,20.00
2023-05-09T02:02:31.100Z,21.17
2023-05-09T02:05:00.281Z,20.33
2023-05-09T02:07:27.948Z,20.47
2023-05-09T02:09:56.439Z,20.77
2023-05-09T02:12:24.384Z,19.97
2023-05-09T02:14:52.254Z,19.53
2023-05-09T02:17:21.663Z,19.43
2023-05-09T02:19:49.458Z,20.30
2023-05-09T02:22:18.580Z,20.10
2023-05-09T02:24:46.258Z,20.37
2023-05-09T02:27:13.996Z,19.03
2023-05-09T02:29:44.301Z,20.20
2023-05-09T02:32:13.680Z,19.43
2023-05-09T02:34:41.947Z,20.17
2023-05-09T02:37:09.685Z,20.43
2023-05-09T02:39:38.750Z,20.23
2023-05-09T02:42:08.021Z,20.23
2023-05-09T02:44:36.181Z,18.70
2023-05-09T02:47:03.972Z,20.70
2023-05-09T02:49:32.758Z,21.50
2023-05-09T02:52:01.403Z,19.37
2023-05-09T02:54:29.413Z,21.20
2023-05-09T02:56:59.198Z,20.60
2023-05-09T02:59:27.002Z,21.60
2023-05-09T03:01:54.844Z,21.13
2023-05-09T03:04:22.994Z,20.47
2023-05-09T03:06:50.668Z,20.87
2023-05-09T03:09:18.384Z,20.57
2023-05-09T03:11:46.142Z,22.37
2023-05-09T03:14:15.536Z,21.80
2023-05-09T03:16:43.312Z,22.07
2023-05-09T03:19:11.056Z,21.13
2023-05-09T03:21:40.491Z,21.53
2023-05-09T03:24:08.534Z,21.70
2023-05-09T03:26:36.635Z,24.10
2023-05-09T03:29:04.405Z,21.40
2023-05-09T03:31:33.737Z,21.60
2023-05-09T03:34:01.772Z,22.17
2023-05-09T03:36:29.747Z,22.50
2023-05-09T03:38:58.638Z,21.70
2023-05-09T03:41:26.365Z,23.57
2023-05-09T03:43:54.058Z,23.10
2023-05-09T03:46:21.830Z,23.43
2023-05-09T03:48:50.984Z,22.97
2023-05-09T03:51:18.859Z,20.90
2023-05-09T03:53:47.160Z,21.97
2023-05-09T03:56:14.903Z,23.93
2023-05-09T03:58:42.671Z,23.57
2023-05-09T04:01:10.758Z,24.67
2023-05-09T04:03:38.735Z,22.33
2023-05-09T04:06:08.412Z,23.13
2023-05-09T04:08:36.101Z,21.90
2023-05-09T04:11:03.798Z,23.73
2023-05-09T04:13:32.965Z,22.60
2023-05-09T04:16:01.513Z,24.37
2023-05-09T04:18:29.249Z,22.73
2023-05-09T04:20:56.962Z,24.43
2023-05-09T04:23:26.032Z,23.10
2023-05-09T04:25:54.342Z,23.67
2023-05-09T04:28:22.327Z,23.37
2023-05-09T04:30:50.128Z,21.73
2023-05-09T04:33:25.372Z,23.07
2023-05-09T04:35:55.696Z,22.17
2023-05-09T04:38:33.337Z,22.27
2023-05-09T04:41:25.870Z,20.97
2023-05-09T04:43:56.431Z,22.20
2023-05-09T04:46:46.330Z,22.97
2023-05-09T04:49:18.577Z,22.17
2023-05-09T04:51:51.877Z,23.13
2023-05-09T04:54:19.688Z,22.40
2023-05-09T04:56:50.608Z,22.37
2023-05-09T04:59:18.487Z,23.83
2023-05-09T05:01:46.351Z,23.90
2023-05-09T05:04:14.296Z,21.67
2023-05-09T05:06:53.671Z,25.03
2023-05-09T05:09:21.743Z,24.00
2023-05-09T05:12:00.000Z,24.17
2023-05-09T05:14:29.834Z,24.53
2023-05-09T05:16:57.763Z,23.33
2023-05-09T05:19:25.808Z,22.63
2023-05-09T05:21:53.699Z,20.53
2023-05-09T05:24:21.829Z,21.47
2023-05-09T05:26:51.178Z,22.47
2023-05-09T05:29:19.086Z,22.07
2023-05-09T05:31:46.913Z,24.07
2023-05-09T05:34:16.323Z,22.97
2023-05-09T05:36:44.349Z,22.10
2023-05-09T05:39:13.475Z,20.80
2023-05-09T05:41:41.245Z,22.10
2023-05-09T05:44:10.338Z,20.87
2023-05-09T05:46:38.012Z,21.23
2023-05-09T05:49:05.837Z,20.63
2023-05-09T05:51:33.670Z,20.30
2023-05-09T05:54:01.259Z,20.40
2023-05-09T05:56:28.943Z,19.07
2023-05-09T05:58:56.610Z,18.77
2023-05-09T06:01:25.736Z,25.27
2023-05-09T06:03:54.938Z,22.90
2023-05-09T06:06:22.794Z,18.73
2023-05-09T06:08:50.947Z,19.37
2023-05-09T06:11:18.757Z,19.67
2023-05-09T06:13:46.792Z,22.47
2023-05-09T06:16:19.212Z,19.30
2023-05-09T06:18:48.938Z,17.77
2023-05-09T06:21:16.552Z,18.83
2023-05-09T06:23:57.829Z,18.50
2023-05-09T06:26:31.969Z,17.60
2023-05-09T06:28:59.824Z,17.87
2023-05-09T06:31:27.750Z,18.40
2023-05-09T06:34:02.679Z,19.17
2023-05-09T06:36:30.920Z,18.77
2023-05-09T06:38:58.779Z,17.90
2023-05-09T06:41:26.672Z,17.70
2023-05-09T06:43:54.420Z,19.27
2023-05-09T06:46:22.347Z,19.77
2023-05-09T06:48:50.682Z,16.50
2023-05-09T06:51:20.696Z,18.90
2023-05-09T06:53:48.438Z,18.87
2023-05-09T06:56:17.386Z,18.80
2023-05-09T06:58:46.325Z,17.60
2023-05-09T07:01:14.145Z,16.33
2023-05-09T07:03:41.794Z,16.80
2023-05-09T07:06:09.670Z,17.10
2023-05-09T07:08:38.977Z,16.65
2023-05-09T07:11:06.629Z,16.05
2023-05-09T07:13:34.385Z,16.33
2023-05-09T07:16:02.084Z,16.65
2023-05-09T07:18:29.916Z,16.48
2023-05-09T07:20:57.582Z,15.05
2023-05-09T07:23:26.970Z,15.38
2023-05-09T07:25:58.925Z,15.05
2023-05-09T07:28:26.843Z,14.75
2023-05-09T07:30:56.322Z,13.55
2023-05-09T07:33:24.357Z,14.45
2023-05-09T07:35:53.195Z,13.95
2023-05-09T07:38:22.522Z,12.20
2023-05-09T07:40:50.309Z,11.63
2023-05-09T07:43:19.251Z,12.70
2023-05-09T07:45:47.333Z,12.50
2023-05-09T07:48:15.585Z,12.48
2023-05-09T07:50:58.287Z,11.48
2023-05-09T07:53:26.385Z,11.70
2023-05-09T07:55:54.074Z,11.57
2023-05-09T07:58:23.511Z,10.02
2023-05-09T08:00:51.528Z,10.38
2023-05-09T08:03:25.326Z,9.48
2023-05-09T08:08:36.270Z,8.63
2023-05-09T08:11:06.286Z,9.85
2023-05-09T08:13:35.431Z,9.00
2023-05-09T08:16:03.168Z,10.20
2023-05-09T08:18:38.996Z,8.88
2023-05-09T08:21:06.726Z,8.95
2023-05-09T08:23:34.457Z,9.38
2023-05-09T08:26:02.322Z,10.07
2023-05-09T08:28:32.550Z,9.80
2023-05-09T08:31:01.678Z,10.25
2023-05-09T08:33:29.601Z,9.52
2023-05-09T08:35:57.993Z,8.55
2023-05-09T08:38:26.039Z,8.18
2023-05-09T08:40:59.389Z,9.52
2023-05-09T08:43:26.982Z,8.55
2023-05-09T08:45:57.428Z,7.90
2023-05-09T08:48:26.805Z,8.15
2023-05-09T08:50:54.530Z,7.15
2023-05-09T08:53:26.270Z,7.13
2023-05-09T09:05:10.107Z,6.25
2023-05-09T09:07:44.384Z,5.85
2023-05-09T09:10:12.578Z,6.10
2023-05-09T09:12:40.933Z,5.30
2023-05-09T09:15:11.755Z,4.82
2023-05-09T09:17:40.349Z,5.88
2023-05-09T09:20:11.433Z,9.50
2023-05-09T09:22:39.503Z,5.38
2023-05-09T09:25:07.634Z,6.72
2023-05-09T09:27:38.400Z,5.95
2023-05-09T09:30:11.686Z,5.60
2023-05-09T09:32:42.329Z,5.93
2023-05-09T09:35:20.299Z,4.60
2023-05-09T09:37:48.546Z,5.88
2023-05-09T09:40:18.042Z,5.63
2023-05-09T09:42:47.053Z,5.43
2023-05-09T09:45:16.708Z,5.40
2023-05-09T09:47:52.027Z,5.05
2023-05-09T09:50:23.160Z,4.68
2023-05-09T09:52:51.662Z,4.22
2023-05-09T09:55:19.546Z,5.13
2023-05-09T09:57:48.568Z,5.80
2023-05-09T10:00:17.646Z,4.45
2023-05-09T10:02:49.661Z,5.03
2023-05-09T10:05:22.477Z,4.20
2023-05-09T10:07:55.514Z,4.30
2023-05-09T10:10:24.569Z,4.72
2023-05-09T10:13:22.680Z,5.10
2023-05-09T10:16:10.462Z,3.63
2023-05-09T10:19:01.373Z,3.88
2023-05-09T10:21:39.728Z,4.25
2023-05-09T10:24:07.771Z,3.67
2023-05-09T10:27:16.397Z,3.70
2023-05-09T10:29:52.707Z,4.15
2023-05-09T10:32:23.941Z,4.22
2023-05-09T10:34:53.966Z,4.57
2023-05-09T10:37:33.405Z,4.68
2023-05-09T10:40:10.087Z,5.90
2023-05-09T10:42:38.442Z,5.88
2023-05-09T10:45:09.450Z,3.72
2023-05-09T10:47:37.487Z,3.28
2023-05-09T10:50:09.986Z,3.65
2023-05-09T10:53:17.847Z,4.00
2023-05-09T10:58:26.234Z,3.40
2023-05-09T11:00:55.373Z,2.85
2023-05-09T11:03:25.822Z,3.72
2023-05-09T11:05:54.744Z,2.85
2023-05-09T11:08:25.406Z,3.80
2023-05-09T11:10:53.342Z,3.80
2023-05-09T11:13:23.351Z,4.15
2023-05-09T11:16:10.681Z,4.18
2023-05-09T11:18:51.542Z,4.65
2023-05-09T11:21:21.331Z,3.65
2023-05-09T11:23:52.958Z,4.22
2023-05-09T11:26:23.435Z,4.32
2023-05-09T11:28:56.868Z,4.47
2023-05-09T11:31:24.699Z,4.07
2023-05-09T11:33:58.536Z,4.50
2023-05-09T11:38:41.282Z,10.02
2023-05-09T11:40:33.306Z,4.07
2023-05-09T11:43:01.253Z,4.40
2023-05-09T11:45:29.828Z,3.95
2023-05-09T11:47:58.341Z,3.60
2023-05-09T11:50:26.106Z,3.40
2023-05-09T11:52:54.338Z,4.10
2023-05-09T11:55:25.105Z,3.25
2023-05-09T11:57:54.923Z,3.60
2023-05-09T12:00:23.579Z,3.30
2023-05-09T12:02:51.736Z,3.10
2023-05-09T12:05:19.977Z,3.03
2023-05-09T12:07:47.727Z,4.18
2023-05-09T12:10:16.751Z,5.03
2023-05-09T12:12:47.079Z,2.72
2023-05-09T12:15:15.319Z,2.58
2023-05-09T12:17:43.594Z,2.45
2023-05-09T12:20:11.684Z,4.07
2023-05-09T12:22:39.527Z,2.47
2023-05-09T12:25:08.547Z,2.40
2023-05-09T12:27:41.177Z,2.50
2023-05-09T12:30:11.993Z,3.70
2023-05-09T12:32:40.361Z,3.50
2023-05-09T12:35:09.525Z,4.00
2023-05-09T12:40:22.426Z,3.85
2023-05-09T12:43:00.828Z,4.40
2023-05-09T12:46:20.422Z,3.85
2023-05-09T12:48:50.780Z,4.43
2023-05-09T12:59:48.531Z,3.95
2023-05-09T13:02:16.583Z,3.95
2023-05-09T13:09:14.188Z,3.45
2023-05-09T13:18:21.762Z,4.10
2023-05-09T13:20:53.050Z,4.28
2023-05-09T13:27:00.694Z,3.50
2023-05-09T13:29:30.081Z,3.35
2023-05-09T13:31:58.556Z,4.15
2023-05-09T13:34:26.286Z,3.75
2023-05-09T13:36:54.192Z,3.83
2023-05-09T13:39:22.319Z,4.05
2023-05-09T13:41:52.892Z,3.70
2023-05-09T13:44:21.452Z,3.90
2023-05-09T13:46:51.087Z,3.75
2023-05-09T13:49:19.745Z,3.65
2023-05-09T13:51:47.819Z,6.35
2023-05-09T13:54:18.629Z,3.38
2023-05-09T13:56:46.509Z,3.50
2023-05-09T13:59:14.895Z,3.72
2023-05-09T14:01:42.834Z,4.30
2023-05-09T14:04:15.167Z,4.22
2023-05-09T14:06:48.131Z,2.90
2023-05-09T14:09:16.820Z,3.22
2023-05-09T14:11:58.957Z,3.63
2023-05-09T14:14:26.874Z,3.33
2023-05-09T14:16:54.814Z,3.10
2023-05-09T14:19:23.915Z,2.75
2023-05-09T14:21:51.935Z,2.83
2023-05-09T14:24:31.057Z,3.17
2023-05-09T14:26:59.317Z,3.10
2023-05-09T14:29:32.503Z,3.03
2023-05-09T14:32:00.481Z,3.15
2023-05-09T14:34:29.665Z,3.08
2023-05-09T14:36:57.761Z,4.38
2023-05-09T14:39:31.703Z,4.57
2023-05-09T14:42:02.642Z,5.25
2023-05-09T14:44:31.101Z,5.88
2023-05-09T14:47:16.735Z,7.75
2023-05-09T14:49:46.267Z,7.63
2023-05-09T14:52:15.327Z,8.55
2023-05-09T14:54:47.619Z,12.18
2023-05-09T14:57:16.187Z,9.23
2023-05-09T15:03:08.745Z,10.13
2023-05-09T15:09:04.501Z,10.63
2023-05-09T15:11:39.902Z,10.13
2023-05-09T15:18:18.389Z,10.57
2023-05-09T15:21:00.211Z,10.93
2023-05-09T15:24:12.040Z,10.80
2023-05-09T15:30:20.116Z,13.50
2023-05-09T15:34:40.409Z,12.00
2023-05-09T16:00:02.287Z,11.90
2023-05-09T16:08:54.671Z,11.70
2023-05-09T16:11:22.719Z,11.65
2023-05-09T16:13:51.595Z,11.38
2023-05-09T16:53:00.046Z,12.57
2023-05-09T16:59:38.985Z,12.43
2023-05-09T18:03:17.760Z,9.50
2023-05-09T18:05:45.787Z,10.50
2023-05-09T18:08:14.138Z,14.07
2023-05-09T18:10:42.271Z,7.10
2023-05-09T18:13:37.618Z,8.80
2023-05-09T18:16:06.169Z,8.80
2023-05-09T18:18:37.716Z,10.00
2023-05-09T18:21:08.131Z,9.03
2023-05-09T18:23:36.706Z,7.67
2023-05-09T18:26:04.966Z,5.30
2023-05-09T18:28:39.277Z,4.33
2023-05-09T18:31:09.600Z,4.00
2023-05-09T18:33:39.131Z,4.53
2023-05-09T18:36:10.444Z,3.77
2023-05-09T18:38:39.424Z,6.03
2023-05-09T18:41:07.939Z,4.40
2023-05-09T18:43:37.621Z,3.73
2023-05-09T18:46:10.890Z,4.27
2023-05-09T18:48:40.866Z,3.77
2023-05-09T18:51:09.024Z,3.37
2023-05-09T18:53:38.421Z,3.37
2023-05-09T18:56:06.447Z,5.83
2023-05-09T18:58:34.780Z,4.27
2023-05-09T19:01:02.892Z,3.80
2023-05-09T19:03:31.071Z,4.67
2023-05-09T19:06:01.948Z,4.97
2023-05-09T19:08:30.881Z,3.83
2023-05-09T19:11:00.204Z,3.77
2023-05-09T19:13:28.668Z,3.97
2023-05-09T19:15:56.856Z,4.00
2023-05-09T19:18:24.735Z,4.20
2023-05-09T19:20:52.957Z,4.57
2023-05-09T19:23:22.820Z,4.30
2023-05-09T19:25:52.173Z,4.30
2023-05-09T19:28:20.336Z,4.00
2023-05-09T19:30:48.823Z,3.93
2023-05-09T19:33:16.713Z,4.00
2023-05-09T19:35:44.978Z,4.37
2023-05-09T19:38:12.912Z,4.17
2023-05-09T19:40:42.248Z,5.03
2023-05-09T19:43:10.111Z,28.87
2023-05-09T19:45:38.145Z,4.50
2023-05-09T19:48:06.563Z,4.80
2023-05-09T19:50:34.511Z,3.97
2023-05-09T19:53:03.204Z,3.60
2023-05-09T19:55:31.652Z,3.67
2023-05-09T19:58:01.408Z,2.90
2023-05-09T20:00:29.245Z,2.87
2023-05-09T20:02:57.416Z,2.70
2023-05-09T20:05:26.250Z,3.50
2023-05-09T20:07:55.629Z,3.20
2023-05-09T20:10:23.896Z,3.53
2023-05-09T20:12:53.124Z,4.37
2023-05-09T20:15:22.538Z,3.47
2023-05-09T20:17:50.779Z,3.23
2023-05-09T20:20:18.755Z,3.13
2023-05-09T20:22:46.722Z,2.90
2023-05-09T20:25:15.415Z,3.40
2023-05-09T20:27:43.449Z,3.50
2023-05-09T20:30:12.820Z,3.53
2023-05-09T20:32:43.126Z,3.13
2023-05-09T20:35:11.352Z,2.27
2023-05-09T20:37:39.580Z,2.60
2023-05-09T20:40:09.233Z,2.00
2023-05-09T20:42:37.475Z,2.17
2023-05-09T20:45:06.054Z,2.00
2023-05-09T20:47:33.967Z,1.90
2023-05-09T20:50:03.367Z,1.67
2023-05-09T20:52:35.067Z,2.73
2023-05-09T20:55:03.068Z,3.73
2023-05-09T20:57:30.790Z,1.50
2023-05-09T20:59:58.554Z,2.53
2023-05-09T21:02:37.899Z,4.80
2023-05-09T21:05:08.140Z,2.40
2023-05-09T21:07:38.850Z,1.73
2023-05-09T21:10:07.616Z,1.60
2023-05-09T21:12:35.404Z,3.13
2023-05-09T21:15:03.685Z,1.90
2023-05-09T21:17:31.471Z,1.60
2023-05-09T21:19:59.393Z,1.80
2023-05-09T21:22:28.601Z,1.97
2023-05-09T21:24:56.360Z,2.03
2023-05-09T21:27:24.232Z,2.20
2023-05-09T21:29:51.873Z,2.13
2023-05-09T21:32:19.826Z,3.10
2023-05-09T21:34:48.585Z,2.20
2023-05-09T21:37:16.426Z,2.10
2023-05-09T21:39:46.170Z,2.50
2023-05-09T21:42:13.940Z,2.43
2023-05-09T21:44:41.673Z,2.97
2023-05-09T21:47:10.214Z,2.60
2023-05-09T21:49:38.093Z,2.33
2023-05-09T21:52:06.306Z,2.67
2023-05-09T21:54:34.098Z,2.60
2023-05-09T21:57:03.339Z,3.00
2023-05-09T21:59:31.029Z,2.70
2023-05-09T22:01:58.780Z,2.97
2023-05-09T22:04:26.631Z,2.10
2023-05-09T22:06:54.480Z,2.53
2023-05-09T22:09:23.444Z,2.53
2023-05-09T22:11:51.780Z,2.60
2023-05-09T22:14:21.027Z,2.50
2023-05-09T22:16:49.820Z,2.30
2023-05-09T22:19:17.536Z,2.10
2023-05-09T22:21:45.338Z,1.90
2023-05-09T22:24:13.623Z,2.47
2023-05-09T22:26:43.226Z,1.83
2023-05-09T22:29:10.960Z,2.30
2023-05-09T22:31:40.118Z,2.10
2023-05-09T22:34:07.857Z,2.00
2023-05-09T22:36:35.648Z,2.00
2023-05-09T22:39:03.416Z,2.20
2023-05-09T22:41:31.110Z,1.70
2023-05-09T22:43:58.807Z,2.70
2023-05-09T22:46:26.813Z,2.00
2023-05-09T22:48:56.049Z,2.00
2023-05-09T22:51:23.976Z,2.57
2023-05-09T22:53:51.692Z,2.37
2023-05-09T22:56:19.556Z,2.80
2023-05-09T22:58:47.464Z,6.40
2023-05-09T23:01:15.312Z,2.50
2023-05-09T23:03:43.930Z,2.27
2023-05-09T23:06:13.082Z,2.73
2023-05-09T23:08:40.775Z,2.47
2023-05-09T23:11:08.600Z,3.50
2023-05-09T23:13:36.529Z,2.60
2023-05-09T23:16:04.340Z,3.07
2023-05-09T23:18:32.405Z,2.97
2023-05-09T23:21:00.362Z,3.23
2023-05-09T23:23:29.720Z,3.37
2023-05-09T23:25:57.689Z,3.00
2023-05-09T23:28:25.992Z,3.03
2023-05-09T23:30:54.519Z,2.90
2023-05-09T23:33:22.427Z,2.77
2023-05-09T23:35:52.364Z,3.07
2023-05-09T23:38:20.321Z,2.97
2023-05-09T23:40:49.563Z,3.17
2023-05-09T23:43:20.404Z,3.13
2023-05-09T23:45:48.233Z,2.80
2023-05-09T23:48:16.032Z,3.27
2023-05-09T23:50:44.755Z,2.90
2023-05-09T23:53:12.484Z,3.17
2023-05-09T23:55:43.011Z,3.87
2023-05-09T23:58:12.144Z,3.77
